createdAt,value
2017-03-17T00:00:43.429Z,39.03
2017-03-17T00:01:43.461Z,39.12
2017-03-17T00:02:43.802Z,38.93
2017-03-17T00:03:43.831Z,38.64
2017-03-17T00:04:43.548Z,38.54
2017-03-17T00:05:43.574Z,38.54
2017-03-17T00:06:43.914Z,38.64
2017-03-17T00:07:43.943Z,38.64
2017-03-17T00:08:43.971Z,38.64
2017-03-17T00:09:43.688Z,38.62
2017-03-17T00:10:44.029Z,38.64
2017-03-17T00:11:43.748Z,38.83
2017-03-17T00:12:44.078Z,38.81
2017-03-17T00:13:44.118Z,38.62
2017-03-17T00:14:44.140Z,38.81
2017-03-17T00:15:44.169Z,38.71
2017-03-17T00:16:43.881Z,38.64
2017-03-17T00:17:43.906Z,38.62
2017-03-17T00:18:44.250Z,38.81
2017-03-17T00:19:43.967Z,39.11
2017-03-17T00:20:43.997Z,38.71
2017-03-17T00:21:44.350Z,38.81
2017-03-17T00:22:44.054Z,39.01
2017-03-17T00:23:44.078Z,39.01
2017-03-17T00:24:44.108Z,38.62
2017-03-17T00:25:44.448Z,38.62
2017-03-17T00:26:44.161Z,38.71
2017-03-17T00:27:44.504Z,38.71
2017-03-17T00:28:44.219Z,38.53
2017-03-17T00:29:44.551Z,38.43
2017-03-17T00:30:44.588Z,38.62
2017-03-17T00:31:44.618Z,38.53
2017-03-17T00:32:44.646Z,38.71
2017-03-17T00:33:44.357Z,38.81
2017-03-17T00:34:44.695Z,38.62
2017-03-17T00:35:44.730Z,38.62
2017-03-17T00:36:44.445Z,38.81
2017-03-17T00:37:44.785Z,38.91
2017-03-17T00:38:44.818Z,38.53
2017-03-17T00:39:44.522Z,38.62
2017-03-17T00:40:44.552Z,38.71
2017-03-17T00:41:44.586Z,38.62
2017-03-17T00:42:44.921Z,38.62
2017-03-17T00:43:44.955Z,38.81
2017-03-17T00:44:44.672Z,38.62
2017-03-17T00:45:44.729Z,38.91
2017-03-17T00:46:45.037Z,39.11
2017-03-17T00:47:44.754Z,38.81
2017-03-17T00:48:45.090Z,38.62
2017-03-17T00:49:45.111Z,38.81
2017-03-17T00:50:44.836Z,38.62
2017-03-17T00:51:45.178Z,38.53
2017-03-17T00:52:45.210Z,38.81
2017-03-17T00:53:45.230Z,38.62
2017-03-17T00:54:44.969Z,39.01
2017-03-17T00:55:45.288Z,38.81
2017-03-17T00:56:45.317Z,38.91
2017-03-17T00:57:45.340Z,38.91
2017-03-17T00:58:45.370Z,38.81
2017-03-17T00:59:45.395Z,38.71
2017-03-17T01:00:45.424Z,38.81
2017-03-17T01:01:45.145Z,38.62
2017-03-17T01:02:45.174Z,38.99
2017-03-17T01:03:45.515Z,38.81
2017-03-17T01:04:45.540Z,38.79
2017-03-17T01:05:45.564Z,38.89
2017-03-17T01:06:45.533Z,38.81
2017-03-17T01:07:45.309Z,38.71
2017-03-17T01:08:45.654Z,38.89
2017-03-17T01:09:45.679Z,38.7
2017-03-17T01:10:45.707Z,39.01
2017-03-17T01:11:45.988Z,38.81
2017-03-17T01:12:45.764Z,38.79
2017-03-17T01:13:45.790Z,38.79
2017-03-17T01:14:45.818Z,38.99
2017-03-17T01:15:45.848Z,39.18
2017-03-17T01:16:46.123Z,38.7
2017-03-17T01:17:45.901Z,38.81
2017-03-17T01:18:45.931Z,38.89
2017-03-17T01:19:45.647Z,38.79
2017-03-17T01:20:45.987Z,39.18
2017-03-17T01:21:46.263Z,38.79
2017-03-17T01:22:46.036Z,38.79
2017-03-17T01:23:45.758Z,38.79
2017-03-17T01:24:45.786Z,38.79
2017-03-17T01:25:45.812Z,38.89
2017-03-17T01:26:46.401Z,38.89
2017-03-17T01:27:45.870Z,38.99
2017-03-17T01:28:45.899Z,38.79
2017-03-17T01:29:46.234Z,39.18
2017-03-17T01:30:46.259Z,38.79
2017-03-17T01:31:46.539Z,38.89
2017-03-17T01:32:46.321Z,39.09
2017-03-17T01:33:46.038Z,38.79
2017-03-17T01:34:46.063Z,38.99
2017-03-17T01:35:46.091Z,39.09
2017-03-17T01:36:46.431Z,38.79
2017-03-17T01:37:46.141Z,39.09
2017-03-17T01:38:46.485Z,39.09
2017-03-17T01:39:46.195Z,38.99
2017-03-17T01:40:46.539Z,38.99
2017-03-17T01:41:46.256Z,38.79
2017-03-17T01:42:46.284Z,38.99
2017-03-17T01:43:46.314Z,38.99
2017-03-17T01:44:46.654Z,38.89
2017-03-17T01:45:46.679Z,38.99
2017-03-17T01:46:46.396Z,39.18
2017-03-17T01:47:46.736Z,39.18
2017-03-17T01:48:46.761Z,38.7
2017-03-17T01:49:46.789Z,39.09
2017-03-17T01:50:46.818Z,38.89
2017-03-17T01:51:46.539Z,38.79
2017-03-17T01:52:46.560Z,38.89
2017-03-17T01:53:46.901Z,38.99
2017-03-17T01:54:46.618Z,38.79
2017-03-17T01:55:46.647Z,38.7
2017-03-17T01:56:46.983Z,38.99
2017-03-17T01:57:46.700Z,38.99
2017-03-17T01:58:46.732Z,38.99
2017-03-17T01:59:47.066Z,38.89
2017-03-17T02:00:46.783Z,38.99
2017-03-17T02:01:46.811Z,38.99
2017-03-17T02:02:47.146Z,39.18
2017-03-17T02:03:47.176Z,38.7
2017-03-17T02:04:46.893Z,39.18
2017-03-17T02:05:47.235Z,38.99
2017-03-17T02:06:47.262Z,39.18
2017-03-17T02:07:47.284Z,39.18
2017-03-17T02:08:47.317Z,38.99
2017-03-17T02:09:47.349Z,38.99
2017-03-17T02:10:47.378Z,38.79
2017-03-17T02:11:47.403Z,38.79
2017-03-17T02:12:47.440Z,39.18
2017-03-17T02:13:47.457Z,38.7
2017-03-17T02:14:47.482Z,38.99
2017-03-17T02:15:47.506Z,38.99
2017-03-17T02:16:47.542Z,38.79
2017-03-17T02:17:47.567Z,38.89
2017-03-17T02:18:47.304Z,38.99
2017-03-17T02:19:47.309Z,38.99
2017-03-17T02:20:47.645Z,38.99
2017-03-17T02:21:47.364Z,39.18
2017-03-17T02:22:47.951Z,39.09
2017-03-17T02:23:47.729Z,39.18
2017-03-17T02:24:47.758Z,39.18
2017-03-17T02:25:47.790Z,39.18
2017-03-17T02:26:47.810Z,39.18
2017-03-17T02:27:48.099Z,38.99
2017-03-17T02:28:47.873Z,39.09
2017-03-17T02:29:47.897Z,38.89
2017-03-17T02:30:47.614Z,38.99
2017-03-17T02:31:47.954Z,38.99
2017-03-17T02:32:48.227Z,39.18
2017-03-17T02:33:47.692Z,38.99
2017-03-17T02:34:47.725Z,38.99
2017-03-17T02:35:47.750Z,39.18
2017-03-17T02:36:48.106Z,39.06
2017-03-17T02:37:48.368Z,39.28
2017-03-17T02:38:47.832Z,38.89
2017-03-17T02:39:48.173Z,38.97
2017-03-17T02:40:48.202Z,39.09
2017-03-17T02:41:48.226Z,38.79
2017-03-17T02:42:48.520Z,39.09
2017-03-17T02:43:48.284Z,38.89
2017-03-17T02:44:48.318Z,38.99
2017-03-17T02:45:48.338Z,39.09
2017-03-17T02:46:48.049Z,38.99
2017-03-17T02:47:48.646Z,39.09
2017-03-17T02:48:48.111Z,38.99
2017-03-17T02:49:48.452Z,38.99
2017-03-17T02:50:48.160Z,39.06
2017-03-17T02:51:48.193Z,39.09
2017-03-17T02:52:48.480Z,39.06
2017-03-17T02:53:48.563Z,39.06
2017-03-17T02:54:48.276Z,38.99
2017-03-17T02:55:48.305Z,39.09
2017-03-17T02:56:48.642Z,39.16
2017-03-17T02:57:48.930Z,39.06
2017-03-17T02:58:48.391Z,39.16
2017-03-17T02:59:48.732Z,38.97
2017-03-17T03:00:48.753Z,39.16
2017-03-17T03:01:48.782Z,38.97
2017-03-17T03:02:49.057Z,38.97
2017-03-17T03:03:48.523Z,39.06
2017-03-17T03:04:48.543Z,38.97
2017-03-17T03:05:48.889Z,38.97
2017-03-17T03:06:48.917Z,39.06
2017-03-17T03:07:49.202Z,39.16
2017-03-17T03:08:48.659Z,38.97
2017-03-17T03:09:49.006Z,38.97
2017-03-17T03:10:48.720Z,39.16
2017-03-17T03:11:48.750Z,38.87
2017-03-17T03:12:49.337Z,39.06
2017-03-17T03:13:48.803Z,38.87
2017-03-17T03:14:49.138Z,38.97
2017-03-17T03:15:49.165Z,38.97
2017-03-17T03:16:49.193Z,38.97
2017-03-17T03:17:49.474Z,38.97
2017-03-17T03:18:49.280Z,38.97
2017-03-17T03:19:49.274Z,39.06
2017-03-17T03:20:49.304Z,38.87
2017-03-17T03:21:49.328Z,39.06
2017-03-17T03:22:49.608Z,39.06
2017-03-17T03:23:49.073Z,39.16
2017-03-17T03:24:49.445Z,38.97
2017-03-17T03:25:49.440Z,38.97
2017-03-17T03:26:49.164Z,39.06
2017-03-17T03:27:49.494Z,38.97
2017-03-17T03:28:49.527Z,38.97
2017-03-17T03:29:49.552Z,38.97
2017-03-17T03:30:49.576Z,39.06
2017-03-17T03:31:49.605Z,38.97
2017-03-17T03:32:49.327Z,39.16
2017-03-17T03:33:49.659Z,38.87
2017-03-17T03:34:49.687Z,38.97
2017-03-17T03:35:49.724Z,39.06
2017-03-17T03:36:49.740Z,38.97
2017-03-17T03:37:49.769Z,38.97
2017-03-17T03:38:49.797Z,38.78
2017-03-17T03:39:49.511Z,38.68
2017-03-17T03:40:49.539Z,38.78
2017-03-17T03:41:49.568Z,38.97
2017-03-17T03:42:49.905Z,39.06
2017-03-17T03:43:49.933Z,39.06
2017-03-17T03:44:49.651Z,38.97
2017-03-17T03:45:49.991Z,39.06
2017-03-17T03:46:50.020Z,38.97
2017-03-17T03:47:49.733Z,38.87
2017-03-17T03:48:49.757Z,38.68
2017-03-17T03:49:50.096Z,38.78
2017-03-17T03:50:49.815Z,38.78
2017-03-17T03:51:50.152Z,38.78
2017-03-17T03:52:49.872Z,39.26
2017-03-17T03:53:50.210Z,39.26
2017-03-17T03:54:50.226Z,39.16
2017-03-17T03:55:50.263Z,39.26
2017-03-17T03:56:50.287Z,39.36
2017-03-17T03:57:50.009Z,39.26
2017-03-17T03:58:50.346Z,39.06
2017-03-17T03:59:50.054Z,38.78
2017-03-17T04:00:50.399Z,39.16
2017-03-17T04:01:50.115Z,39.06
2017-03-17T04:02:50.148Z,38.78
2017-03-17T04:03:50.482Z,39.16
2017-03-17T04:04:50.509Z,38.78
2017-03-17T04:05:50.535Z,39.06
2017-03-17T04:06:50.252Z,38.97
2017-03-17T04:07:50.597Z,39.16
2017-03-17T04:08:50.869Z,39.16
2017-03-17T04:09:50.335Z,39.06
2017-03-17T04:10:50.671Z,39.26
2017-03-17T04:11:50.700Z,39.26
2017-03-17T04:12:50.729Z,38.97
2017-03-17T04:13:51.007Z,39.06
2017-03-17T04:14:50.781Z,39.45
2017-03-17T04:15:50.498Z,38.97
2017-03-17T04:16:50.835Z,38.97
2017-03-17T04:17:50.864Z,39.54
2017-03-17T04:18:51.149Z,38.97
2017-03-17T04:19:50.917Z,39.26
2017-03-17T04:20:50.635Z,39.26
2017-03-17T04:21:50.971Z,39.16
2017-03-17T04:22:51.000Z,39.06
2017-03-17T04:23:50.968Z,39.24
2017-03-17T04:24:50.746Z,39.04
2017-03-17T04:25:51.082Z,39.24
2017-03-17T04:26:50.795Z,39.06
2017-03-17T04:27:51.135Z,39.24
2017-03-17T04:28:51.420Z,39.26
2017-03-17T04:29:50.880Z,39.24
2017-03-17T04:30:51.217Z,38.76
2017-03-17T04:31:51.247Z,39.04
2017-03-17T04:32:50.963Z,38.95
2017-03-17T04:33:51.548Z,39.24
2017-03-17T04:34:51.017Z,39.24
2017-03-17T04:35:51.353Z,39.24
2017-03-17T04:36:51.067Z,39.24
2017-03-17T04:37:51.412Z,38.95
2017-03-17T04:38:51.436Z,39.04
2017-03-17T04:39:51.158Z,38.76
2017-03-17T04:40:51.178Z,38.85
2017-03-17T04:41:51.523Z,39.06
2017-03-17T04:42:51.238Z,39.14
2017-03-17T04:43:51.580Z,39.24
2017-03-17T04:44:51.603Z,38.76
2017-03-17T04:45:51.313Z,38.95
2017-03-17T04:46:51.654Z,38.85
2017-03-17T04:47:51.680Z,39.14
2017-03-17T04:48:51.708Z,39.04
2017-03-17T04:49:51.732Z,38.76
2017-03-17T04:50:51.752Z,38.76
2017-03-17T04:51:51.791Z,39.14
2017-03-17T04:52:51.820Z,39.04
2017-03-17T04:53:51.532Z,38.76
2017-03-17T04:54:51.871Z,38.76
2017-03-17T04:55:51.589Z,38.66
2017-03-17T04:56:51.925Z,38.76
2017-03-17T04:57:51.962Z,38.76
2017-03-17T04:58:51.983Z,38.66
2017-03-17T04:59:52.007Z,38.85
2017-03-17T05:00:52.036Z,38.66
2017-03-17T05:01:52.061Z,38.76
2017-03-17T05:02:52.102Z,38.66
2017-03-17T05:03:52.116Z,38.76
2017-03-17T05:04:51.830Z,38.56
2017-03-17T05:05:52.169Z,38.85
2017-03-17T05:06:52.194Z,38.66
2017-03-17T05:07:52.230Z,38.85
2017-03-17T05:08:52.259Z,38.76
2017-03-17T05:09:52.281Z,38.95
2017-03-17T05:10:51.997Z,38.95
2017-03-17T05:11:52.335Z,39.04
2017-03-17T05:12:52.053Z,38.95
2017-03-17T05:13:52.388Z,38.85
2017-03-17T05:14:52.103Z,38.66
2017-03-17T05:15:52.444Z,39.14
2017-03-17T05:16:52.470Z,38.95
2017-03-17T05:17:52.499Z,39.24
2017-03-17T05:18:52.523Z,38.95
2017-03-17T05:19:52.249Z,39.04
2017-03-17T05:20:52.580Z,39.04
2017-03-17T05:21:52.610Z,39.43
2017-03-17T05:22:52.321Z,39.43
2017-03-17T05:23:52.672Z,39.43
2017-03-17T05:24:52.679Z,39.62
2017-03-17T05:25:52.716Z,39.43
2017-03-17T05:26:52.437Z,39.04
2017-03-17T05:27:52.770Z,39.24
2017-03-17T05:28:52.800Z,39.45
2017-03-17T05:29:52.828Z,39.04
2017-03-17T05:30:52.540Z,39.14
2017-03-17T05:31:52.868Z,39.24
2017-03-17T05:32:52.905Z,38.95
2017-03-17T05:33:52.934Z,38.95
2017-03-17T05:34:52.961Z,39.14
2017-03-17T05:35:52.984Z,38.95
2017-03-17T05:36:52.696Z,39.24
2017-03-17T05:37:53.063Z,39.26
2017-03-17T05:38:53.064Z,38.95
2017-03-17T05:39:53.095Z,39.34
2017-03-17T05:40:52.812Z,39.26
2017-03-17T05:41:53.149Z,39.26
2017-03-17T05:42:53.178Z,39.06
2017-03-17T05:43:53.207Z,39.06
2017-03-17T05:44:53.529Z,38.78
2017-03-17T05:45:53.260Z,38.78
2017-03-17T05:46:52.968Z,38.97
2017-03-17T05:47:52.997Z,38.97
2017-03-17T05:48:53.031Z,38.68
2017-03-17T05:49:53.667Z,38.87
2017-03-17T05:50:53.395Z,39.06
2017-03-17T05:51:53.421Z,38.87
2017-03-17T05:52:53.453Z,39.16
2017-03-17T05:53:53.478Z,38.97
2017-03-17T05:54:53.438Z,39.16
2017-03-17T05:55:53.219Z,38.97
2017-03-17T05:56:53.560Z,38.78
2017-03-17T05:57:53.272Z,38.97
2017-03-17T05:58:53.622Z,38.78
2017-03-17T05:59:53.886Z,38.49
2017-03-17T06:00:53.673Z,38.58
2017-03-17T06:01:53.691Z,38.78
2017-03-17T06:02:53.722Z,38.7
2017-03-17T06:03:53.742Z,38.6
2017-03-17T06:04:54.086Z,38.79
2017-03-17T06:05:53.491Z,38.7
2017-03-17T06:06:53.516Z,38.89
2017-03-17T06:07:53.542Z,38.51
2017-03-17T06:08:53.886Z,38.99
2017-03-17T06:09:53.858Z,38.99
2017-03-17T06:10:53.940Z,39.28
2017-03-17T06:11:53.964Z,39.28
2017-03-17T06:12:53.996Z,39.28
2017-03-17T06:13:53.710Z,38.89
2017-03-17T06:14:54.373Z,38.7
2017-03-17T06:15:54.071Z,38.51
2017-03-17T06:16:54.099Z,38.79
2017-03-17T06:17:54.120Z,38.89
2017-03-17T06:18:54.158Z,38.89
2017-03-17T06:19:54.434Z,38.99
2017-03-17T06:20:54.207Z,38.79
2017-03-17T06:21:53.923Z,38.79
2017-03-17T06:22:54.264Z,39.09
2017-03-17T06:23:53.973Z,38.6
2017-03-17T06:24:54.621Z,38.99
2017-03-17T06:25:54.346Z,38.41
2017-03-17T06:26:54.059Z,38.41
2017-03-17T06:27:54.405Z,38.31
2017-03-17T06:28:54.429Z,38.41
2017-03-17T06:29:54.147Z,38.53
2017-03-17T06:30:54.171Z,38.31
2017-03-17T06:31:54.199Z,38.14
2017-03-17T06:32:54.236Z,38.12
2017-03-17T06:33:54.569Z,38.41
2017-03-17T06:34:54.595Z,38.41
2017-03-17T06:35:54.622Z,38.21
2017-03-17T06:36:54.331Z,38.02
2017-03-17T06:37:54.672Z,38.21
2017-03-17T06:38:54.407Z,37.95
2017-03-17T06:39:54.737Z,37.93
2017-03-17T06:40:54.449Z,38.02
2017-03-17T06:41:54.791Z,38.02
2017-03-17T06:42:54.812Z,37.73
2017-03-17T06:43:54.849Z,38.12
2017-03-17T06:44:54.878Z,38.04
2017-03-17T06:45:54.582Z,38.14
2017-03-17T06:46:54.611Z,37.83
2017-03-17T06:47:54.949Z,37.95
2017-03-17T06:48:54.973Z,37.93
2017-03-17T06:49:55.003Z,37.83
2017-03-17T06:50:54.723Z,37.95
2017-03-17T06:51:54.747Z,38.04
2017-03-17T06:52:54.776Z,37.46
2017-03-17T06:53:55.116Z,37.73
2017-03-17T06:54:55.137Z,37.73
2017-03-17T06:55:55.170Z,37.65
2017-03-17T06:56:55.199Z,37.75
2017-03-17T06:57:55.224Z,37.85
2017-03-17T06:58:55.257Z,38.14
2017-03-17T06:59:55.281Z,38.04
2017-03-17T07:00:55.305Z,37.85
2017-03-17T07:01:55.333Z,37.63
2017-03-17T07:02:55.362Z,37.83
2017-03-17T07:03:55.396Z,37.83
2017-03-17T07:04:55.109Z,37.65
2017-03-17T07:05:55.450Z,37.83
2017-03-17T07:06:55.475Z,37.93
2017-03-17T07:07:55.501Z,37.75
2017-03-17T07:08:55.538Z,37.73
2017-03-17T07:09:55.561Z,37.75
2017-03-17T07:10:55.581Z,37.75
2017-03-17T07:11:55.298Z,37.65
2017-03-17T07:12:55.635Z,37.95
2017-03-17T07:13:55.664Z,37.75
2017-03-17T07:14:55.700Z,37.56
2017-03-17T07:15:55.721Z,38.04
2017-03-17T07:16:55.433Z,37.95
2017-03-17T07:17:55.780Z,37.75
2017-03-17T07:18:55.803Z,37.65
2017-03-17T07:19:55.843Z,36.98
2017-03-17T07:20:55.862Z,36.32
2017-03-17T07:21:55.882Z,35.47
2017-03-17T07:22:55.915Z,35.39
2017-03-17T07:23:55.946Z,35.02
2017-03-17T07:24:55.968Z,34.55
2017-03-17T07:25:55.997Z,33.8
2017-03-17T07:26:55.717Z,33.04
2017-03-17T07:27:56.056Z,32.56
2017-03-17T07:28:55.763Z,32.18
2017-03-17T07:29:56.108Z,32.2
2017-03-17T07:30:56.145Z,31.62
2017-03-17T07:31:56.163Z,31.24
2017-03-17T07:32:56.191Z,30.76
2017-03-17T07:33:56.225Z,30.68
2017-03-17T07:34:55.946Z,30.48
2017-03-17T07:35:56.273Z,30.4
2017-03-17T07:36:56.309Z,29.82
2017-03-17T07:37:56.342Z,29.64
2017-03-17T07:38:56.363Z,29.64
2017-03-17T07:39:56.398Z,29.35
2017-03-17T07:40:56.425Z,29.05
2017-03-17T07:41:56.454Z,28.86
2017-03-17T07:42:56.484Z,28.38
2017-03-17T07:43:56.510Z,28.76
2017-03-17T07:44:56.232Z,28.94
2017-03-17T07:45:56.865Z,28.83
2017-03-17T07:46:56.286Z,28.64
2017-03-17T07:47:56.316Z,28.72
2017-03-17T07:48:56.344Z,28.9
2017-03-17T07:49:56.689Z,28.8
2017-03-17T07:50:57.015Z,28.89
2017-03-17T07:51:56.741Z,29.37
2017-03-17T07:52:56.770Z,30.82
2017-03-17T07:53:56.807Z,31.2
2017-03-17T07:54:56.524Z,31.2
2017-03-17T07:55:56.814Z,31.49
2017-03-17T07:56:56.565Z,31.47
2017-03-17T07:57:56.914Z,31.57
2017-03-17T07:58:56.946Z,32.06
2017-03-17T07:59:56.977Z,31.96
2017-03-17T08:00:56.984Z,32.15
2017-03-17T08:01:56.729Z,32.54
2017-03-17T08:02:57.057Z,32.73
2017-03-17T08:03:57.082Z,32.33
2017-03-17T08:04:56.804Z,32.92
2017-03-17T08:05:57.083Z,33.2
2017-03-17T08:06:57.173Z,32.91
2017-03-17T08:07:57.206Z,33.2
2017-03-17T08:08:57.232Z,33.01
2017-03-17T08:09:57.259Z,33.2
2017-03-17T08:10:57.543Z,33.29
2017-03-17T08:11:57.001Z,33.87
2017-03-17T08:12:57.029Z,33.78
2017-03-17T08:13:57.375Z,33.49
2017-03-17T08:14:57.086Z,33.76
2017-03-17T08:15:57.411Z,34.05
2017-03-17T08:16:57.456Z,34.05
2017-03-17T08:17:57.482Z,33.95
2017-03-17T08:18:57.514Z,33.95
2017-03-17T08:19:57.543Z,34.34
2017-03-17T08:20:57.868Z,34.05
2017-03-17T08:21:57.600Z,34.25
2017-03-17T08:22:57.629Z,34.25
2017-03-17T08:23:57.674Z,34.25
2017-03-17T08:24:57.371Z,34.44
2017-03-17T08:25:57.400Z,34.92
2017-03-17T08:26:57.753Z,34.92
2017-03-17T08:27:57.461Z,34.83
2017-03-17T08:28:57.798Z,34.34
2017-03-17T08:29:57.519Z,35.02
2017-03-17T08:30:57.860Z,35.12
2017-03-17T08:31:57.885Z,35.31
2017-03-17T08:32:57.601Z,35.41
2017-03-17T08:33:57.621Z,35.5
2017-03-17T08:34:57.971Z,35.31
2017-03-17T08:35:57.996Z,35.31
2017-03-17T08:36:58.017Z,35.6
2017-03-17T08:37:57.746Z,35.31
2017-03-17T08:38:58.082Z,36.08
2017-03-17T08:39:58.114Z,35.99
2017-03-17T08:40:57.827Z,35.6
2017-03-17T08:41:57.856Z,35.99
2017-03-17T08:42:58.193Z,36.07
2017-03-17T08:43:57.910Z,35.99
2017-03-17T08:44:58.250Z,35.8
2017-03-17T08:45:58.279Z,35.68
2017-03-17T08:46:58.308Z,35.68
2017-03-17T08:47:58.331Z,35.39
2017-03-17T08:48:58.366Z,36.16
2017-03-17T08:49:58.390Z,36.07
2017-03-17T08:50:58.111Z,35.2
2017-03-17T08:51:58.447Z,35.58
2017-03-17T08:52:58.481Z,35.68
2017-03-17T08:53:58.510Z,35.78
2017-03-17T08:54:58.531Z,35
2017-03-17T08:55:58.247Z,34.81
2017-03-17T08:56:58.591Z,35.02
2017-03-17T08:57:58.321Z,34.73
2017-03-17T08:58:58.645Z,34.15
2017-03-17T08:59:58.359Z,34.54
2017-03-17T09:00:58.702Z,34.36
2017-03-17T09:01:58.418Z,34.07
2017-03-17T09:02:58.765Z,33.69
2017-03-17T09:03:58.477Z,33.01
2017-03-17T09:04:58.505Z,32.73
2017-03-17T09:05:58.534Z,33.02
2017-03-17T09:06:58.872Z,33.04
2017-03-17T09:07:58.899Z,33.04
2017-03-17T09:08:58.617Z,32.26
2017-03-17T09:09:58.958Z,32.36
2017-03-17T09:10:58.986Z,32.28
2017-03-17T09:11:59.015Z,32.37
2017-03-17T09:12:59.040Z,32.09
2017-03-17T09:13:59.069Z,32.37
2017-03-17T09:14:59.102Z,32.09
2017-03-17T09:15:58.822Z,32.18
2017-03-17T09:16:58.843Z,32.26
2017-03-17T09:17:59.188Z,32.65
2017-03-17T09:18:59.212Z,32.65
2017-03-17T09:19:58.932Z,32.92
2017-03-17T09:20:58.962Z,32.82
2017-03-17T09:21:59.294Z,33.22
2017-03-17T09:22:59.328Z,33.6
2017-03-17T09:23:59.353Z,34.07
2017-03-17T09:24:59.076Z,33.87
2017-03-17T09:25:59.410Z,34.55
2017-03-17T09:26:59.439Z,34.17
2017-03-17T09:27:59.160Z,34.07
2017-03-17T09:28:59.501Z,34.27
2017-03-17T09:29:59.218Z,34.17
2017-03-17T09:30:59.245Z,34.65
2017-03-17T09:31:59.275Z,34.94
2017-03-17T09:32:59.608Z,34.84
2017-03-17T09:33:59.645Z,35.23
2017-03-17T09:34:59.666Z,34.83
2017-03-17T09:35:59.699Z,35.31
2017-03-17T09:36:59.729Z,35.21
2017-03-17T09:37:59.752Z,34.92
2017-03-17T09:38:59.788Z,35.12
2017-03-17T09:39:59.505Z,34.54
2017-03-17T09:40:59.574Z,35.31
2017-03-17T09:42:00.122Z,35.02
2017-03-17T09:42:59.928Z,35.21
2017-03-17T09:43:59.924Z,35.12
2017-03-17T09:44:59.961Z,35.41
2017-03-17T09:45:59.981Z,35.02
2017-03-17T09:46:59.954Z,35.12
2017-03-17T09:47:59.722Z,35.41
2017-03-17T09:48:59.760Z,35.29
2017-03-17T09:49:59.789Z,35.29
2017-03-17T09:50:59.814Z,35.29
2017-03-17T09:52:00.409Z,36.07
2017-03-17T09:53:00.183Z,35.97
2017-03-17T09:54:00.212Z,35.97
2017-03-17T09:55:00.237Z,35.88
2017-03-17T09:56:00.273Z,35.88
2017-03-17T09:57:00.233Z,35.78
2017-03-17T09:58:00.010Z,35.68
2017-03-17T09:59:00.351Z,35.78
2017-03-17T10:00:00.384Z,35.97
2017-03-17T10:01:00.095Z,35.49
2017-03-17T10:02:00.381Z,35.86
2017-03-17T10:03:00.159Z,35.86
2017-03-17T10:04:00.187Z,36.15
2017-03-17T10:05:00.528Z,36.24
2017-03-17T10:06:00.242Z,36.44
2017-03-17T10:07:00.524Z,36.53
2017-03-17T10:08:00.614Z,36.15
2017-03-17T10:09:00.335Z,36.34
2017-03-17T10:10:00.360Z,36.34
2017-03-17T10:11:00.705Z,36.34
2017-03-17T10:12:00.978Z,36.24
2017-03-17T10:13:00.754Z,36.24
2017-03-17T10:14:00.783Z,36.63
2017-03-17T10:15:00.817Z,36.63
2017-03-17T10:16:00.836Z,36.53
2017-03-17T10:17:01.120Z,36.53
2017-03-17T10:18:00.586Z,36.92
2017-03-17T10:19:00.612Z,36.63
2017-03-17T10:20:00.964Z,36.82
2017-03-17T10:21:00.998Z,36.92
2017-03-17T10:22:01.264Z,36.53
2017-03-17T10:23:01.046Z,36.82
2017-03-17T10:24:00.759Z,36.82
2017-03-17T10:25:01.094Z,36.72
2017-03-17T10:26:01.120Z,37.4
2017-03-17T10:27:01.405Z,37.3
2017-03-17T10:28:00.878Z,37.12
2017-03-17T10:29:01.210Z,37.3
2017-03-17T10:30:01.240Z,37.12
2017-03-17T10:31:00.949Z,37.4
2017-03-17T10:32:01.552Z,37.5
2017-03-17T10:33:01.325Z,37.67
2017-03-17T10:34:01.035Z,37.3
2017-03-17T10:35:01.063Z,37.48
2017-03-17T10:36:01.096Z,37.29
2017-03-17T10:37:01.377Z,37.58
2017-03-17T10:38:01.465Z,37.58
2017-03-17T10:39:01.522Z,37.67
2017-03-17T10:40:01.211Z,37.29
2017-03-17T10:41:01.236Z,37.29
2017-03-17T10:42:01.515Z,37.29
2017-03-17T10:43:01.293Z,37.77
2017-03-17T10:44:01.323Z,37.38
2017-03-17T10:45:01.351Z,37.38
2017-03-17T10:46:01.688Z,37.29
2017-03-17T10:47:01.972Z,37.58
2017-03-17T10:48:01.749Z,37.77
2017-03-17T10:49:01.458Z,37.38
2017-03-17T10:50:01.807Z,38.06
2017-03-17T10:51:01.831Z,37.48
2017-03-17T10:52:02.112Z,37.96
2017-03-17T10:53:01.889Z,37.77
2017-03-17T10:54:01.918Z,38.06
2017-03-17T10:55:01.631Z,38.06
2017-03-17T10:56:01.977Z,37.58
2017-03-17T10:57:01.936Z,37.67
2017-03-17T10:58:01.722Z,37.87
2017-03-17T10:59:02.056Z,37.96
2017-03-17T11:00:02.087Z,37.96
2017-03-17T11:01:01.803Z,37.67
2017-03-17T11:02:02.083Z,38.06
2017-03-17T11:03:02.204Z,37.96
2017-03-17T11:04:01.886Z,37.77
2017-03-17T11:05:01.914Z,38.25
2017-03-17T11:06:02.256Z,38.25
2017-03-17T11:07:02.559Z,38.25
2017-03-17T11:08:02.313Z,38.06
2017-03-17T11:09:02.345Z,38.06
2017-03-17T11:10:02.058Z,37.96
2017-03-17T11:11:02.394Z,37.96
2017-03-17T11:12:02.363Z,37.96
2017-03-17T11:13:02.145Z,37.87
2017-03-17T11:14:02.493Z,38.06
2017-03-17T11:15:02.202Z,38.16
2017-03-17T11:16:02.538Z,38.35
2017-03-17T11:17:02.503Z,38.83
2017-03-17T11:18:02.285Z,38.83
2017-03-17T11:19:02.313Z,38.54
2017-03-17T11:20:02.645Z,38.64
2017-03-17T11:21:02.366Z,38.93
2017-03-17T11:22:02.643Z,38.83
2017-03-17T11:23:02.734Z,38.83
2017-03-17T11:24:02.765Z,38.83
2017-03-17T11:25:02.793Z,38.74
2017-03-17T11:26:02.823Z,38.74
2017-03-17T11:27:03.095Z,38.93
2017-03-17T11:28:02.879Z,39.03
2017-03-17T11:29:02.597Z,39.32
2017-03-17T11:30:02.933Z,39.03
2017-03-17T11:31:02.962Z,39.03
2017-03-17T11:32:02.678Z,39.61
2017-03-17T11:33:02.705Z,39.41
2017-03-17T11:34:03.041Z,39.61
2017-03-17T11:35:03.067Z,39.41
2017-03-17T11:36:03.106Z,39.22
2017-03-17T11:37:03.135Z,39.51
2017-03-17T11:38:03.154Z,39.61
2017-03-17T11:39:02.868Z,39.41
2017-03-17T11:40:03.221Z,39.61
2017-03-17T11:41:03.246Z,39.22
2017-03-17T11:42:02.963Z,39.22
2017-03-17T11:43:03.304Z,39.61
2017-03-17T11:44:03.342Z,39.61
2017-03-17T11:45:03.363Z,39.7
2017-03-17T11:46:03.389Z,39.9
2017-03-17T11:47:03.106Z,40.19
2017-03-17T11:48:03.443Z,39.9
2017-03-17T11:49:03.472Z,39.99
2017-03-17T11:50:03.502Z,39.99
2017-03-17T11:51:03.213Z,39.99
2017-03-17T11:52:03.246Z,40.09
2017-03-17T11:53:03.280Z,40.28
2017-03-17T11:54:03.617Z,40.57
2017-03-17T11:55:03.328Z,40.67
2017-03-17T11:56:03.669Z,40.77
2017-03-17T11:57:03.385Z,40.96
2017-03-17T11:58:03.412Z,41.25
2017-03-17T11:59:03.757Z,40.96
2017-03-17T12:00:03.784Z,40.96
2017-03-17T12:01:03.814Z,41.15
2017-03-17T12:02:03.841Z,42.12
2017-03-17T12:03:03.863Z,42.12
2017-03-17T12:04:03.587Z,42.6
2017-03-17T12:05:03.616Z,42.12
2017-03-17T12:06:03.957Z,42.31
2017-03-17T12:07:03.981Z,43.08
2017-03-17T12:08:04.007Z,43.95
2017-03-17T12:09:03.728Z,44.63
2017-03-17T12:10:04.068Z,44.53
2017-03-17T12:11:03.781Z,44.05
2017-03-17T12:12:04.125Z,43.18
2017-03-17T12:13:03.835Z,43.28
2017-03-17T12:14:03.864Z,42.7
2017-03-17T12:15:03.926Z,42.02
2017-03-17T12:16:04.237Z,42.12
2017-03-17T12:17:04.262Z,42.12
2017-03-17T12:18:04.293Z,41.73
2017-03-17T12:19:04.319Z,42.12
2017-03-17T12:20:04.353Z,41.83
2017-03-17T12:21:04.381Z,41.54
2017-03-17T12:22:04.406Z,42.21
2017-03-17T12:23:04.434Z,42.12
2017-03-17T12:24:04.463Z,42.12
2017-03-17T12:25:04.179Z,41.83
2017-03-17T12:26:04.516Z,42.7
2017-03-17T12:27:04.545Z,42.79
2017-03-17T12:28:04.582Z,42.31
2017-03-17T12:29:04.295Z,41.54
2017-03-17T12:30:04.635Z,41.44
2017-03-17T12:31:04.353Z,41.73
2017-03-17T12:32:04.686Z,41.35
2017-03-17T12:33:04.718Z,41.71
2017-03-17T12:34:04.748Z,41.03
2017-03-17T12:35:04.772Z,41.23
2017-03-17T12:36:04.808Z,40.94
2017-03-17T12:37:04.829Z,41.61
2017-03-17T12:38:04.550Z,41.52
2017-03-17T12:39:04.891Z,41.23
2017-03-17T12:40:04.919Z,41.52
2017-03-17T12:41:04.952Z,41.23
2017-03-17T12:42:04.970Z,41.52
2017-03-17T12:43:04.690Z,42
2017-03-17T12:44:04.715Z,42.19
2017-03-17T12:45:05.059Z,41.91
2017-03-17T12:46:04.776Z,42.1
2017-03-17T12:47:05.117Z,41.91
2017-03-17T12:48:04.832Z,42.29
2017-03-17T12:49:04.865Z,42.19
2017-03-17T12:50:05.199Z,42.02
2017-03-17T12:51:05.232Z,42.21
2017-03-17T12:52:04.944Z,42.21
2017-03-17T12:53:05.285Z,42.12
2017-03-17T12:54:05.314Z,42.02
2017-03-17T12:55:05.030Z,41.75